Terminal Aerodrome Forecast
Issued by NWS Quad Cities IA IL

Home | Current Version | Previous Version | Text Only | Print | Product List | Glossary On
Versions: 1 2 3 4 5 6 7 8 9 10 11 12 13 14 15 16 17 18 19 20
000
FTUS43 KDVN 242000 AAA
TAFMLI
TAF AMD
KMLI 242028Z 2420/2518 21012KT 6SM HZ BKN040
     FM250000 21007KT 4SM BR SCT005
     FM250200 23004KT 1SM BR OVC004
     FM250800 26004KT 1/2SM FG OVC003
     FM251400 29006KT 6SM BR SCT200=

USA.gov is the U.S. government's official web portal to all federal, state and local government web resources and services.